createdAt,value
2022-09-09T00:00:13.595Z,99740.69
2022-09-09T00:05:22.439Z,99743.53
2022-09-09T00:10:28.444Z,99750.66
2022-09-09T00:15:37.841Z,99753.47
2022-09-09T00:20:47.074Z,99757.56
2022-09-09T00:25:55.933Z,99750.03
2022-09-09T00:31:03.104Z,99753.47
2022-09-09T00:36:12.740Z,99750.19
2022-09-09T00:41:22.192Z,99735.31
2022-09-09T00:46:42.002Z,99732.47
2022-09-09T00:51:51.172Z,99733.06
2022-09-09T00:57:04.702Z,99731.88
2022-09-09T01:02:17.784Z,99732.03
2022-09-09T01:07:21.165Z,99738.81
2022-09-09T01:12:30.544Z,99736.75
2022-09-09T01:17:49.389Z,99736.72
2022-09-09T01:23:04.475Z,99737.53
2022-09-09T01:28:13.325Z,99728.97
2022-09-09T01:33:18.787Z,99737.53
2022-09-09T01:38:21.436Z,99736.06
2022-09-09T01:43:29.311Z,99729.16
2022-09-09T01:48:33.697Z,99731.22
2022-09-09T01:53:41.772Z,99727.53
2022-09-09T01:58:57.927Z,99726.69
2022-09-09T02:04:02.095Z,99727.09
2022-09-09T02:09:07.134Z,99733.41
2022-09-09T02:14:14.866Z,99740.75
2022-09-09T02:19:26.691Z,99741.97
2022-09-09T02:24:41.907Z,99740.72
2022-09-09T02:29:53.696Z,99743.97
2022-09-09T02:35:11.548Z,99756.41
2022-09-09T02:40:17.230Z,99742.94
2022-09-09T02:45:29.426Z,99748.84
2022-09-09T02:50:35.729Z,99740.66
2022-09-09T02:55:43.342Z,99744.72
2022-09-09T03:00:51.627Z,99750.63
2022-09-09T03:05:55.552Z,99749.22
2022-09-09T03:11:02.306Z,99752.88
2022-09-09T03:16:08.962Z,99746.34
2022-09-09T03:21:17.802Z,99756.34
2022-09-09T03:26:21.400Z,99747.16
2022-09-09T03:31:26.559Z,99749.78
2022-09-09T03:36:29.445Z,99753.25
2022-09-09T03:41:32.984Z,99744.91
2022-09-09T03:46:39.235Z,99739.00
2022-09-09T03:51:41.893Z,99740.63
2022-09-09T03:56:46.621Z,99742.03
2022-09-09T04:01:52.108Z,99741.22
2022-09-09T04:06:54.998Z,99730.22
2022-09-09T04:11:57.729Z,99735.69
2022-09-09T04:17:02.080Z,99738.13
2022-09-09T04:22:05.343Z,99735.88
2022-09-09T04:27:08.906Z,99746.47
2022-09-09T04:32:14.576Z,99741.34
2022-09-09T04:37:17.732Z,99757.66
2022-09-09T04:42:20.593Z,99743.19
2022-09-09T04:47:25.254Z,99745.88
2022-09-09T04:52:28.241Z,99746.84
2022-09-09T04:57:33.187Z,99739.31
2022-09-09T05:02:40.783Z,99738.94
2022-09-09T05:07:44.322Z,99744.66
2022-09-09T05:12:54.739Z,99758.72
2022-09-09T05:18:03.407Z,99764.81
2022-09-09T05:23:07.890Z,99766.72
2022-09-09T05:28:11.036Z,99767.00
2022-09-09T05:33:15.479Z,99769.25
2022-09-09T05:38:19.515Z,99761.50
2022-09-09T05:43:22.547Z,99767.84
2022-09-09T05:48:26.833Z,99771.75
2022-09-09T05:53:33.132Z,99770.38
2022-09-09T05:58:36.851Z,99765.91
2022-09-09T06:03:45.167Z,99771.22
2022-09-09T06:08:48.797Z,99772.88
2022-09-09T06:13:54.823Z,99774.31
2022-09-09T06:18:59.712Z,99775.34
2022-09-09T06:24:05.074Z,99773.56
2022-09-09T06:29:07.957Z,99779.91
2022-09-09T06:34:12.755Z,99777.47
2022-09-09T06:39:18.452Z,99783.41
2022-09-09T06:44:23.840Z,99788.72
2022-09-09T06:49:27.838Z,99779.91
2022-09-09T06:54:30.796Z,99793.00
2022-09-09T06:59:34.423Z,99788.09
2022-09-09T07:04:39.021Z,99787.47
2022-09-09T07:09:41.878Z,99781.38
2022-09-09T07:14:45.605Z,99789.50
2022-09-09T07:19:50.571Z,99783.81
2022-09-09T07:24:53.855Z,99783.63
2022-09-09T07:29:56.712Z,99782.59
2022-09-09T07:35:00.949Z,99791.38
2022-09-09T07:40:06.265Z,99789.31
2022-09-09T07:45:09.261Z,99781.97
2022-09-09T07:50:13.718Z,99789.94
2022-09-09T07:55:16.970Z,99798.72
2022-09-09T08:00:22.767Z,99809.13
2022-09-09T08:05:31.154Z,99804.00
2022-09-09T08:10:34.236Z,99818.09
2022-09-09T08:15:37.325Z,99814.41
2022-09-09T08:20:43.110Z,99817.38
2022-09-09T08:25:46.695Z,99816.63
2022-09-09T08:30:50.533Z,99817.25
2022-09-09T08:35:54.543Z,99815.19
2022-09-09T08:41:07.026Z,99816.63
2022-09-09T08:46:12.925Z,99824.16
2022-09-09T08:51:18.537Z,99827.13
2022-09-09T08:56:24.589Z,99835.91
2022-09-09T09:01:42.721Z,99840.00
2022-09-09T09:06:55.127Z,99841.38
2022-09-09T09:12:01.694Z,99824.97
2022-09-09T09:17:13.903Z,99819.13
2022-09-09T09:22:23.133Z,99818.19
2022-09-09T09:27:34.237Z,99830.94
2022-09-09T09:32:38.521Z,99818.97
2022-09-09T09:43:10.654Z,99816.91
2022-09-09T09:48:14.947Z,99815.75
2022-09-09T09:53:27.903Z,99814.84
2022-09-09T09:58:35.113Z,99825.31
2022-09-09T10:03:41.514Z,99811.00
2022-09-09T10:08:48.528Z,99806.09
2022-09-09T10:13:58.682Z,99811.44
2022-09-09T10:19:02.364Z,99812.88
2022-09-09T10:24:19.421Z,99816.88
2022-09-09T10:29:38.798Z,99824.28
2022-09-09T10:34:56.077Z,99805.41
2022-09-09T10:40:05.944Z,99803.94
2022-09-09T10:45:19.478Z,99800.94
2022-09-09T10:51:00.055Z,99802.81
2022-09-09T10:56:03.793Z,99785.13
2022-09-09T11:01:15.170Z,99783.34
2022-09-09T11:06:20.872Z,99785.84
2022-09-09T11:11:34.380Z,99779.81
2022-09-09T11:16:43.212Z,99787.91
2022-09-09T11:21:49.187Z,99769.38
2022-09-09T11:26:56.532Z,99750.00
2022-09-09T11:32:09.154Z,99763.38
2022-09-09T11:37:49.442Z,99745.34
2022-09-09T11:43:03.240Z,99754.78
2022-09-09T11:48:08.391Z,99751.63
2022-09-09T11:53:23.509Z,99738.72
2022-09-09T11:58:27.513Z,99745.94
2022-09-09T12:03:44.600Z,99736.31
2022-09-09T12:08:50.979Z,99737.94
2022-09-09T12:14:00.535Z,99738.66
2022-09-09T12:19:08.775Z,99733.19
2022-09-09T12:24:13.291Z,99739.31
2022-09-09T12:29:26.375Z,99738.63
2022-09-09T12:34:37.896Z,99725.63
2022-09-09T12:39:46.513Z,99717.97
2022-09-09T12:44:58.112Z,99725.78
2022-09-09T12:50:01.044Z,99720.09
2022-09-09T12:55:06.094Z,99712.47
2022-09-09T13:00:16.739Z,99700.56
2022-09-09T13:05:22.548Z,99701.25
2022-09-09T13:10:36.656Z,99699.97
2022-09-09T13:15:54.706Z,99693.44
2022-09-09T13:20:58.635Z,99691.72
2022-09-09T13:26:02.844Z,99682.25
2022-09-09T13:31:20.196Z,99683.03
2022-09-09T13:36:31.115Z,99676.16
2022-09-09T13:41:35.668Z,99668.47
2022-09-09T13:46:41.213Z,99670.09
2022-09-09T13:51:46.525Z,99671.06
2022-09-09T13:56:50.736Z,99682.84
2022-09-09T14:01:54.934Z,99690.63
2022-09-09T14:06:58.026Z,99692.84
2022-09-09T14:12:00.669Z,99707.72
2022-09-09T14:17:07.884Z,99707.25
2022-09-09T14:22:10.823Z,99720.69
2022-09-09T14:27:13.586Z,99713.28
2022-09-09T14:32:17.542Z,99713.78
2022-09-09T14:37:21.501Z,99730.06
2022-09-09T14:42:24.431Z,99718.22
2022-09-09T14:47:28.523Z,99708.13
2022-09-09T14:52:32.146Z,99701.81
2022-09-09T14:57:35.800Z,99699.53
2022-09-09T15:02:39.828Z,99696.09
2022-09-09T15:07:42.523Z,99698.81
2022-09-09T15:12:45.299Z,99705.34
2022-09-09T15:17:49.262Z,99698.03
2022-09-09T15:22:53.726Z,99702.94
2022-09-09T15:27:56.918Z,99698.06
2022-09-09T15:33:00.898Z,99689.09
2022-09-09T15:38:04.040Z,99691.38
2022-09-09T15:43:07.415Z,99693.59
2022-09-09T15:48:12.547Z,99691.34
2022-09-09T15:53:15.160Z,99687.72
2022-09-09T15:58:18.322Z,99688.63
2022-09-09T16:03:22.335Z,99684.56
2022-09-09T16:08:25.175Z,99688.13
2022-09-09T16:13:28.895Z,99694.59
2022-09-09T16:18:37.124Z,99686.31
2022-09-09T16:23:40.052Z,99685.00
2022-09-09T16:28:43.010Z,99691.19
2022-09-09T16:33:48.440Z,99697.22
2022-09-09T16:38:54.687Z,99694.16
2022-09-09T16:43:57.818Z,99685.59
2022-09-09T16:49:03.280Z,99685.94
2022-09-09T16:54:08.127Z,99686.59
2022-09-09T16:59:12.238Z,99700.22
2022-09-09T17:04:21.172Z,99701.34
2022-09-09T17:09:25.475Z,99701.28
2022-09-09T17:14:28.077Z,99713.59
2022-09-09T17:19:32.115Z,99711.41
2022-09-09T17:24:35.324Z,99717.47
2022-09-09T17:29:37.975Z,99724.69
2022-09-09T17:34:41.886Z,99731.69
2022-09-09T17:39:45.761Z,99732.94
2022-09-09T17:44:48.419Z,99722.78
2022-09-09T17:49:52.389Z,99737.28
2022-09-09T17:54:57.568Z,99737.84
2022-09-09T18:00:00.237Z,99731.88
2022-09-09T18:05:04.467Z,99730.88
2022-09-09T18:10:07.785Z,99738.84
2022-09-09T18:15:14.363Z,99750.25
2022-09-09T18:20:22.239Z,99758.13
2022-09-09T18:25:25.085Z,99761.44
2022-09-09T18:30:27.875Z,99765.59
2022-09-09T18:35:31.806Z,99765.53
2022-09-09T18:40:34.625Z,99769.06
2022-09-09T18:45:38.255Z,99767.75
2022-09-09T18:50:42.271Z,99779.97
2022-09-09T18:55:44.909Z,99778.16
2022-09-09T19:00:47.839Z,99789.47
2022-09-09T19:05:52.385Z,99794.06
2022-09-09T19:10:55.046Z,99798.56
2022-09-09T19:15:58.647Z,99801.91
2022-09-09T19:21:12.574Z,99802.53
2022-09-09T19:26:17.146Z,99799.53
2022-09-09T19:31:21.400Z,99795.88
2022-09-09T19:36:27.599Z,99798.19
2022-09-09T19:41:31.793Z,99802.53
2022-09-09T19:46:36.766Z,99805.63
2022-09-09T19:51:41.305Z,99810.56
2022-09-09T19:56:44.739Z,99809.97
2022-09-09T20:01:47.503Z,99799.09
2022-09-09T20:06:53.162Z,99812.03
2022-09-09T20:11:55.847Z,99811.78
2022-09-09T20:16:58.423Z,99812.69
2022-09-09T20:22:02.417Z,99827.25
2022-09-09T20:27:07.032Z,99820.94
2022-09-09T20:32:09.714Z,99843.53
2022-09-09T20:37:13.871Z,99842.09
2022-09-09T20:42:17.840Z,99851.94
2022-09-09T20:47:20.771Z,99843.97
2022-09-09T20:52:24.693Z,99835.56
2022-09-09T20:57:27.564Z,99843.00
2022-09-09T21:02:30.300Z,99840.53
2022-09-09T21:07:34.248Z,99835.84
2022-09-09T21:12:36.880Z,99835.44
2022-09-09T21:17:40.172Z,99828.91
2022-09-09T21:22:44.200Z,99826.25
2022-09-09T21:27:46.816Z,99827.28
2022-09-09T21:32:49.897Z,99822.34
2022-09-09T21:37:53.930Z,99829.09
2022-09-09T21:42:56.524Z,99832.19
2022-09-09T21:48:00.385Z,99835.47
2022-09-09T21:53:04.495Z,99834.66
2022-09-09T21:58:07.268Z,99837.94
2022-09-09T22:03:10.177Z,99839.16
2022-09-09T22:08:16.204Z,99830.38
2022-09-09T22:13:19.980Z,99829.78
2022-09-09T22:18:22.633Z,99823.22
2022-09-09T22:23:26.811Z,99813.66
2022-09-09T22:28:30.638Z,99825.53
2022-09-09T22:33:33.400Z,99828.44
2022-09-09T22:38:37.427Z,99830.28
2022-09-09T22:43:43.496Z,99839.28
2022-09-09T22:48:46.095Z,99852.19
2022-09-09T22:53:50.027Z,99848.91
2022-09-09T22:58:55.582Z,99850.16
2022-09-09T23:04:01.493Z,99835.47
2022-09-09T23:09:05.888Z,99831.16
2022-09-09T23:14:11.364Z,99830.97
2022-09-09T23:19:16.674Z,99832.22
2022-09-09T23:24:20.622Z,99831.19
2022-09-09T23:29:23.579Z,99818.94
2022-09-09T23:34:26.835Z,99820.13
2022-09-09T23:39:30.901Z,99822.19
2022-09-09T23:44:33.505Z,99809.34
2022-09-09T23:49:37.189Z,99803.19
2022-09-09T23:54:41.187Z,99802.78
2022-09-09T23:59:43.848Z,99808.50
